LFRV/VNE METAR and TAF weather

Enter ICAO airport designator
Station Type Date Time Source
LFRV METAR 2019/02/22 23:00 UTC NOAA

LFRV 222300Z AUTO 10009KT CAVOK 11/06 Q1030


Station Type Date Time Source
LFRV Decoded METAR 2019/02/22 23:00 UTC NOAA

Station name not available
Feb 22, 2019 - 06:00 PM EST / 2019.02.22 2300 UTC
Wind: from the E (100 degrees) at 10 MPH (9 KT):0
Visibility: greater than 7 mile(s):0
Temperature: 51 F (11 C)
Dew Point: 42 F (6 C)
Relative Humidity: 71%
Pressure (altimeter): 30.42 in. Hg (1030 hPa)
ob: LFRV 222300Z AUTO 10009KT CAVOK 11/06 Q1030
cycle: 23

Station Type Date Time Source
LFRV TAF UTC NOAA

Error!


Example: see airport list